Back to Top

Language: 

My Weather Underground Personal Weather Station Historical Data with Graphs...

Delerius Weather Station Historical Data
Daily Summary for January 5, 2017 Units:  English    Metric   Both
« Previous Day
Next Day »
Daily Weekly Monthly Yearly Custom
  High: Low: Average:
Temperature: 43.3 °F 28.3 °F 34 °F
Dew Point: 34.2 °F 25.7 °F 29.5 °F
Humidity: 95 % 70 % 84 %
Wind Speed: 5.0 mph 0.0 mph 0.8 mph
Wind Gust: 29.0 mph - -
Wind:- - WNW
Pressure: 30.58 in 30.46 in -
Precipitation: 0.00 in    
Historical Graphs
 
 
Tabular Data for January 5, 2017
Time Temperature Dew Point Pressure Wind Wind Speed Wind Gust Humidity Rainfall Rate (Hourly) solar Conditions
00:00 35.6 °F 28.8 °F 30.46 in NW 4.0 mph 29.0 mph 76 % 0.00 in 0 W/m2
00:05 35.5 °F 28.7 °F 30.46 in NW 4.0 mph 29.0 mph 76 % 0.00 in 0 W/m2
00:15 35.3 °F 28.5 °F 30.46 in NW 4.0 mph 7.0 mph 76 % 0.00 in 0 W/m2
00:20 35.2 °F 28.7 °F 30.46 in NW 4.0 mph 5.0 mph 77 % 0.00 in 0 W/m2
00:25 35.1 °F 28.6 °F 30.46 in NW 4.0 mph 5.0 mph 77 % 0.00 in 0 W/m2
00:30 34.9 °F 28.4 °F 30.46 in NW 4.0 mph 5.0 mph 77 % 0.00 in 0 W/m2
00:35 34.9 °F 28.4 °F 30.46 in NW 4.0 mph 5.0 mph 77 % 0.00 in 0 W/m2
00:40 34.8 °F 28.3 °F 30.46 in NW 3.0 mph 3.0 mph 77 % 0.00 in 0 W/m2
00:50 34.5 °F 28.3 °F 30.46 in NW 3.0 mph 3.0 mph 78 % 0.00 in 0 W/m2
01:00 34.3 °F 28.2 °F 30.46 in NW 4.0 mph 4.0 mph 78 % 0.00 in 0 W/m2
01:05 34.2 °F 28.4 °F 30.46 in NW 3.0 mph 8.0 mph 79 % 0.00 in 0 W/m2
01:10 34.2 °F 28.4 °F 30.47 in NW 2.0 mph 8.0 mph 79 % 0.00 in 0 W/m2
01:15 34.1 °F 28.3 °F 30.47 in NW 2.0 mph 8.0 mph 79 % 0.00 in 0 W/m2
01:25 34.1 °F 28.6 °F 30.47 in NW 2.0 mph 8.0 mph 80 % 0.00 in 0 W/m2
01:30 34.1 °F 28.6 °F 30.47 in NW 1.0 mph 8.0 mph 80 % 0.00 in 0 W/m2
01:35 34.0 °F 28.5 °F 30.47 in NW 1.0 mph 8.0 mph 80 % 0.00 in 0 W/m2
01:40 33.9 °F 28.4 °F 30.47 in NW 2.0 mph 8.0 mph 80 % 0.00 in 0 W/m2
01:45 34.0 °F 28.8 °F 30.47 in NW 2.0 mph 8.0 mph 81 % 0.00 in 0 W/m2
01:50 34.0 °F 28.5 °F 30.47 in NW 2.0 mph 8.0 mph 80 % 0.00 in 0 W/m2
02:00 34.2 °F 28.7 °F 30.47 in WNW 4.0 mph 4.0 mph 80 % 0.00 in 0 W/m2
02:05 34.2 °F 28.7 °F 30.47 in NW 3.0 mph 8.0 mph 80 % 0.00 in 0 W/m2
02:10 34.0 °F 28.5 °F 30.47 in NW 2.0 mph 8.0 mph 80 % 0.00 in 0 W/m2
02:15 33.9 °F 28.4 °F 30.48 in NW 2.0 mph 8.0 mph 80 % 0.00 in 0 W/m2
02:20 33.7 °F 28.2 °F 30.48 in NW 2.0 mph 8.0 mph 80 % 0.00 in 0 W/m2
02:25 33.7 °F 28.5 °F 30.48 in NW 3.0 mph 8.0 mph 81 % 0.00 in 0 W/m2
02:35 33.6 °F 28.4 °F 30.48 in NW 4.0 mph 8.0 mph 81 % 0.00 in 0 W/m2
02:40 33.5 °F 28.3 °F 30.48 in WNW 3.0 mph 8.0 mph 81 % 0.00 in 0 W/m2
02:45 33.5 °F 28.3 °F 30.48 in NW 3.0 mph 8.0 mph 81 % 0.00 in 0 W/m2
02:50 33.5 °F 28.3 °F 30.48 in NW 3.0 mph 8.0 mph 81 % 0.00 in 0 W/m2
02:55 33.6 °F 28.4 °F 30.49 in NW 3.0 mph 8.0 mph 81 % 0.00 in 0 W/m2
03:00 33.8 °F 28.6 °F 30.49 in NW 1.0 mph 8.0 mph 81 % 0.00 in 0 W/m2
03:10 33.9 °F 28.4 °F 30.49 in NW 2.0 mph 8.0 mph 80 % 0.00 in 0 W/m2
03:15 33.9 °F 28.7 °F 30.49 in NW 2.0 mph 8.0 mph 81 % 0.00 in 0 W/m2
03:20 33.9 °F 28.7 °F 30.49 in NW 1.0 mph 8.0 mph 81 % 0.00 in 0 W/m2
03:25 33.8 °F 28.6 °F 30.49 in NW 1.0 mph 8.0 mph 81 % 0.00 in 0 W/m2
03:30 33.8 °F 28.3 °F 30.49 in NW 2.0 mph 2.0 mph 80 % 0.00 in 0 W/m2
03:35 33.6 °F 28.1 °F 30.49 in NW 2.0 mph 8.0 mph 80 % 0.00 in 0 W/m2
03:45 33.4 °F 27.9 °F 30.49 in NW 2.0 mph 8.0 mph 80 % 0.00 in 0 W/m2
03:55 33.2 °F 28.0 °F 30.49 in NW 2.0 mph 8.0 mph 81 % 0.00 in 0 W/m2
04:00 33.1 °F 27.9 °F 30.48 in NW 2.0 mph 2.0 mph 81 % 0.00 in 0 W/m2
04:05 33.0 °F 27.8 °F 30.48 in NW 1.0 mph 8.0 mph 81 % 0.00 in 0 W/m2
04:10 32.7 °F 27.5 °F 30.48 in NW 1.0 mph 1.0 mph 81 % 0.00 in 0 W/m2
04:15 32.4 °F 27.2 °F 30.48 in NW 1.0 mph 2.0 mph 81 % 0.00 in 0 W/m2
04:20 32.1 °F 27.2 °F 30.48 in NW 1.0 mph 1.0 mph 82 % 0.00 in 0 W/m2
04:30 31.6 °F 27.0 °F 30.48 in NW 1.0 mph 8.0 mph 83 % 0.00 in 0 W/m2
04:35 31.3 °F 27.0 °F 30.48 in NW 2.0 mph 8.0 mph 84 % 0.00 in 0 W/m2
04:40 31.2 °F 26.9 °F 30.49 in NW 2.0 mph 2.0 mph 84 % 0.00 in 0 W/m2
04:45 31.2 °F 26.9 °F 30.49 in NW 1.0 mph 8.0 mph 84 % 0.00 in 0 W/m2
04:50 31.1 °F 26.8 °F 30.49 in NW 1.0 mph 1.0 mph 84 % 0.00 in 0 W/m2
04:55 31.0 °F 27.0 °F 30.49 in NW 1.0 mph 8.0 mph 85 % 0.00 in 0 W/m2
05:00 30.8 °F 26.8 °F 30.49 in Calm   8.0 mph 85 % 0.00 in 0 W/m2
05:10 30.4 °F 26.4 °F 30.50 in NW 1.0 mph 8.0 mph 85 % 0.00 in 0 W/m2
05:15 30.2 °F 26.5 °F 30.50 in NW 2.0 mph 8.0 mph 86 % 0.00 in 0 W/m2
05:20 30.2 °F 26.8 °F 30.50 in NW 1.0 mph 8.0 mph 87 % 0.00 in 0 W/m2
05:25 30.4 °F 27.0 °F 30.50 in NW 1.0 mph 8.0 mph 87 % 0.00 in 0 W/m2
05:30 30.5 °F 27.1 °F 30.50 in NW 1.0 mph 1.0 mph 87 % 0.00 in 0 W/m2
05:35 30.5 °F 27.1 °F 30.50 in Calm   8.0 mph 87 % 0.00 in 0 W/m2
05:45 30.3 °F 26.9 °F 30.50 in Calm   8.0 mph 87 % 0.00 in 0 W/m2
05:50 30.2 °F 26.8 °F 30.50 in Calm   8.0 mph 87 % 0.00 in 0 W/m2
05:55 30.1 °F 26.7 °F 30.50 in NW 1.0 mph 8.0 mph 87 % 0.00 in 0 W/m2
06:00 30.1 °F 27.0 °F 30.51 in NW 1.0 mph 8.0 mph 88 % 0.00 in 0 W/m2
06:05 30.0 °F 26.6 °F 30.51 in NW 1.0 mph 8.0 mph 87 % 0.00 in 0 W/m2
06:10 29.9 °F 26.5 °F 30.51 in NW 1.0 mph 1.0 mph 87 % 0.00 in 0 W/m2
06:15 29.8 °F 26.4 °F 30.51 in Calm   8.0 mph 87 % 0.00 in 0 W/m2
06:25 29.6 °F 26.5 °F 30.51 in Calm   8.0 mph 88 % 0.00 in 0 W/m2
06:30 29.5 °F 26.4 °F 30.51 in Calm   8.0 mph 88 % 0.00 in 0 W/m2
06:35 29.3 °F 26.2 °F 30.51 in NW 1.0 mph 8.0 mph 88 % 0.00 in 0 W/m2
06:40 29.2 °F 26.1 °F 30.51 in NW 1.0 mph 8.0 mph 88 % 0.00 in 0 W/m2
06:45 29.1 °F 26.0 °F 30.51 in NW 1.0 mph 8.0 mph 88 % 0.00 in 0 W/m2
06:50 29.0 °F 26.2 °F 30.51 in NW 1.0 mph 8.0 mph 89 % 0.00 in 0 W/m2
06:55 29.0 °F 26.2 °F 30.51 in NW 1.0 mph 8.0 mph 89 % 0.00 in 0 W/m2
07:00 29.0 °F 26.2 °F 30.51 in NW 2.0 mph 8.0 mph 89 % 0.00 in 0 W/m2
07:10 29.2 °F 26.4 °F 30.51 in NW 1.0 mph 8.0 mph 89 % 0.00 in 0 W/m2
07:15 29.2 °F 26.4 °F 30.51 in NW 1.0 mph 8.0 mph 89 % 0.00 in 0 W/m2
07:20 29.0 °F 26.2 °F 30.52 in NW 1.0 mph 1.0 mph 89 % 0.00 in 0 W/m2
07:25 28.9 °F 26.1 °F 30.52 in Calm   8.0 mph 89 % 0.00 in 0 W/m2
07:30 28.8 °F 26.0 °F 30.52 in Calm   8.0 mph 89 % 0.00 in 0 W/m2
07:35 28.7 °F 25.9 °F 30.52 in Calm   8.0 mph 89 % 0.00 in 0 W/m2
07:40 28.6 °F 26.0 °F 30.53 in Calm   8.0 mph 90 % 0.00 in 0 W/m2
07:45 28.4 °F 25.8 °F 30.53 in Calm   8.0 mph 90 % 0.00 in 0 W/m2
07:50 28.4 °F 25.8 °F 30.53 in Calm   8.0 mph 90 % 0.00 in 0 W/m2
08:00 28.5 °F 25.9 °F 30.53 in Calm   8.0 mph 90 % 0.00 in 0 W/m2
08:05 28.5 °F 25.9 °F 30.53 in Calm   8.0 mph 90 % 0.00 in 0 W/m2
08:10 28.3 °F 25.7 °F 30.54 in Calm   8.0 mph 90 % 0.00 in 5 W/m2
08:15 28.4 °F 26.1 °F 30.54 in NW 1.0 mph 8.0 mph 91 % 0.00 in 5 W/m2
08:20 28.5 °F 26.2 °F 30.54 in NW 1.0 mph 1.0 mph 91 % 0.00 in 7 W/m2
08:25 28.6 °F 26.3 °F 30.54 in Calm   8.0 mph 91 % 0.00 in 9 W/m2
08:30 28.6 °F 26.3 °F 30.54 in Calm   8.0 mph 91 % 0.00 in 11 W/m2
08:40 28.4 °F 26.1 °F 30.54 in NW 1.0 mph 8.0 mph 91 % 0.00 in 14 W/m2
08:45 28.4 °F 26.1 °F 30.54 in NW 2.0 mph 8.0 mph 91 % 0.00 in 16 W/m2
08:50 28.4 °F 26.1 °F 30.54 in NW 2.0 mph 2.0 mph 91 % 0.00 in 18 W/m2
08:55 28.6 °F 26.3 °F 30.54 in NW 1.0 mph 8.0 mph 91 % 0.00 in 19 W/m2
09:00 28.8 °F 26.8 °F 30.54 in Calm   8.0 mph 92 % 0.00 in 21 W/m2
09:05 28.8 °F 26.5 °F 30.54 in Calm   8.0 mph 91 % 0.00 in 21 W/m2
09:15 28.9 °F 26.6 °F 30.55 in Calm   8.0 mph 91 % 0.00 in 25 W/m2
09:20 29.0 °F 26.7 °F 30.55 in Calm   8.0 mph 91 % 0.00 in 26 W/m2
09:25 29.3 °F 27.3 °F 30.55 in Calm   8.0 mph 92 % 0.00 in 30 W/m2
09:30 29.5 °F 27.5 °F 30.55 in Calm   8.0 mph 92 % 0.00 in 109 W/m2
09:35 29.7 °F 27.7 °F 30.55 in Calm   8.0 mph 92 % 0.00 in 123 W/m2
09:40 30.0 °F 27.7 °F 30.55 in Calm   8.0 mph 91 % 0.00 in 137 W/m2
09:50 30.9 °F 28.9 °F 30.55 in Calm   8.0 mph 92 % 0.00 in 142 W/m2
09:55 31.7 °F 29.4 °F 30.55 in Calm   8.0 mph 91 % 0.00 in 151 W/m2
10:00 32.4 °F 29.8 °F 30.55 in Calm   8.0 mph 90 % 0.00 in 165 W/m2
10:10 33.7 °F 30.5 °F 30.55 in Calm   8.0 mph 88 % 0.00 in 135 W/m2
10:15 34.2 °F 31.0 °F 30.55 in Calm   8.0 mph 88 % 0.00 in 160 W/m2
10:20 34.8 °F 31.3 °F 30.55 in Calm   8.0 mph 87 % 0.00 in 160 W/m2
10:25 35.3 °F 31.2 °F 30.55 in Calm   8.0 mph 85 % 0.00 in 174 W/m2
10:35 35.7 °F 31.3 °F 30.56 in Calm   8.0 mph 84 % 0.00 in 176 W/m2
10:40 36.1 °F 31.4 °F 30.56 in Calm   8.0 mph 83 % 0.00 in 185 W/m2
10:45 36.6 °F 31.6 °F 30.55 in Calm   8.0 mph 82 % 0.00 in 202 W/m2
10:50 37.4 °F 32.1 °F 30.55 in Calm   8.0 mph 81 % 0.00 in 200 W/m2
10:55 38.1 °F 32.5 °F 30.55 in Calm   8.0 mph 80 % 0.00 in 216 W/m2
11:00 38.7 °F 32.4 °F 30.55 in Calm   8.0 mph 78 % 0.00 in 218 W/m2
11:10 39.2 °F 32.6 °F 30.55 in Calm   8.0 mph 77 % 0.00 in 230 W/m2
11:15 39.5 °F 32.6 °F 30.54 in Calm   8.0 mph 76 % 0.00 in 230 W/m2
11:20 39.8 °F 32.8 °F 30.54 in Calm   8.0 mph 76 % 0.00 in 232 W/m2
11:25 40.1 °F 32.5 °F 30.54 in Calm   8.0 mph 74 % 0.00 in 237 W/m2
11:30 40.2 °F 32.6 °F 30.54 in Calm   8.0 mph 74 % 0.00 in 230 W/m2
11:35 40.3 °F 32.3 °F 30.54 in Calm   8.0 mph 73 % 0.00 in 246 W/m2
11:45 40.9 °F 32.9 °F 30.54 in Calm   8.0 mph 73 % 0.00 in 241 W/m2
11:50 41.0 °F 32.7 °F 30.54 in Calm   8.0 mph 72 % 0.00 in 232 W/m2
11:55 41.0 °F 32.7 °F 30.54 in Calm   8.0 mph 72 % 0.00 in 255 W/m2
12:00 41.1 °F 32.8 °F 30.54 in Calm   8.0 mph 72 % 0.00 in 236 W/m2
12:10 41.4 °F 33.0 °F 30.54 in Calm   8.0 mph 72 % 0.00 in 255 W/m2
12:15 41.7 °F 33.0 °F 30.54 in Calm   8.0 mph 71 % 0.00 in 255 W/m2
12:20 41.9 °F 33.2 °F 30.54 in Calm   8.0 mph 71 % 0.00 in 234 W/m2
12:25 42.0 °F 33.3 °F 30.54 in Calm   8.0 mph 71 % 0.00 in 255 W/m2
12:30 42.3 °F 33.6 °F 30.55 in Calm   8.0 mph 71 % 0.00 in 162 W/m2
12:35 42.3 °F 33.6 °F 30.55 in NW 1.0 mph 8.0 mph 71 % 0.00 in 253 W/m2
12:40 42.2 °F 33.5 °F 30.55 in Calm   8.0 mph 71 % 0.00 in 253 W/m2
12:50 42.2 °F 33.5 °F 30.55 in Calm   8.0 mph 71 % 0.00 in 244 W/m2
12:55 42.3 °F 33.6 °F 30.55 in Calm   8.0 mph 71 % 0.00 in 241 W/m2
13:05 42.8 °F 33.7 °F 30.54 in Calm   8.0 mph 70 % 0.00 in 232 W/m2
13:10 42.7 °F 33.6 °F 30.54 in NW 1.0 mph 1.0 mph 70 % 0.00 in 227 W/m2
13:15 42.6 °F 33.5 °F 30.54 in NW 1.0 mph 8.0 mph 70 % 0.00 in 223 W/m2
13:20 42.5 °F 33.8 °F 30.53 in Calm   8.0 mph 71 % 0.00 in 218 W/m2
13:30 42.7 °F 33.6 °F 30.53 in NW 1.0 mph 1.0 mph 70 % 0.00 in 206 W/m2
13:35 42.9 °F 33.8 °F 30.54 in Calm   8.0 mph 70 % 0.00 in 202 W/m2
13:40 42.9 °F 33.8 °F 30.54 in Calm   8.0 mph 70 % 0.00 in 197 W/m2
13:45 42.9 °F 33.8 °F 30.54 in Calm   8.0 mph 70 % 0.00 in 190 W/m2
13:50 42.8 °F 33.7 °F 30.53 in Calm   8.0 mph 70 % 0.00 in 185 W/m2
13:55 42.9 °F 33.8 °F 30.54 in Calm   8.0 mph 70 % 0.00 in 178 W/m2
14:05 43.0 °F 33.9 °F 30.55 in Calm   8.0 mph 70 % 0.00 in 165 W/m2
14:10 43.1 °F 34.0 °F 30.55 in NW 1.0 mph 1.0 mph 70 % 0.00 in 158 W/m2
14:15 43.2 °F 34.1 °F 30.55 in Calm   8.0 mph 70 % 0.00 in 151 W/m2
14:20 43.2 °F 34.1 °F 30.55 in Calm   8.0 mph 70 % 0.00 in 144 W/m2
14:25 43.3 °F 34.2 °F 30.55 in Calm   8.0 mph 70 % 0.00 in 135 W/m2
14:30 43.2 °F 34.1 °F 30.55 in Calm   8.0 mph 70 % 0.00 in 128 W/m2
14:40 43.2 °F 34.1 °F 30.54 in Calm   8.0 mph 70 % 0.00 in 107 W/m2
14:45 43.1 °F 34.0 °F 30.54 in NW 1.0 mph 8.0 mph 70 % 0.00 in 102 W/m2
14:50 42.9 °F 33.8 °F 30.55 in NW 1.0 mph 1.0 mph 70 % 0.00 in 91 W/m2
14:55 42.6 °F 33.9 °F 30.55 in NW 1.0 mph 8.0 mph 71 % 0.00 in 84 W/m2
15:00 42.2 °F 33.5 °F 30.55 in NW 1.0 mph 1.0 mph 71 % 0.00 in 74 W/m2
15:05 41.7 °F 33.3 °F 30.55 in NW 1.0 mph 8.0 mph 72 % 0.00 in 67 W/m2
15:10 41.4 °F 33.4 °F 30.55 in NW 1.0 mph 1.0 mph 73 % 0.00 in 30 W/m2
15:20 41.1 °F 33.4 °F 30.55 in Calm   8.0 mph 74 % 0.00 in 23 W/m2
15:25 40.9 °F 33.6 °F 30.55 in NW 1.0 mph 8.0 mph 75 % 0.00 in 21 W/m2
15:30 40.6 °F 33.3 °F 30.55 in Calm   8.0 mph 75 % 0.00 in 18 W/m2
15:35 40.3 °F 33.3 °F 30.55 in Calm   8.0 mph 76 % 0.00 in 16 W/m2
15:40 40.0 °F 33.0 °F 30.55 in Calm   8.0 mph 76 % 0.00 in 14 W/m2
15:45 39.7 °F 33.1 °F 30.55 in Calm   8.0 mph 77 % 0.00 in 12 W/m2
15:55 39.0 °F 32.7 °F 30.55 in Calm   8.0 mph 78 % 0.00 in 9 W/m2
16:00 38.7 °F 32.4 °F 30.55 in Calm   8.0 mph 78 % 0.00 in 7 W/m2
16:05 38.3 °F 32.4 °F 30.55 in Calm   8.0 mph 79 % 0.00 in 5 W/m2
16:10 37.9 °F 32.3 °F 30.56 in Calm   8.0 mph 80 % 0.00 in 5 W/m2
16:15 37.5 °F 31.9 °F 30.56 in Calm   8.0 mph 80 % 0.00 in 0 W/m2
16:25 36.8 °F 31.5 °F 30.56 in Calm   8.0 mph 81 % 0.00 in 0 W/m2
16:30 36.4 °F 31.4 °F 30.56 in Calm   8.0 mph 82 % 0.00 in 0 W/m2
16:35 36.1 °F 31.1 °F 30.56 in Calm   8.0 mph 82 % 0.00 in 0 W/m2
16:40 35.7 °F 31.0 °F 30.56 in Calm   8.0 mph 83 % 0.00 in 0 W/m2
16:45 35.3 °F 30.7 °F 30.56 in Calm   8.0 mph 83 % 0.00 in 0 W/m2
16:50 35.0 °F 30.7 °F 30.56 in Calm   8.0 mph 84 % 0.00 in 0 W/m2
17:00 34.4 °F 30.4 °F 30.56 in Calm   8.0 mph 85 % 0.00 in 0 W/m2
17:05 34.1 °F 30.1 °F 30.56 in Calm   8.0 mph 85 % 0.00 in 0 W/m2
17:10 33.8 °F 29.8 °F 30.56 in Calm   8.0 mph 85 % 0.00 in 0 W/m2
17:15 33.6 °F 29.9 °F 30.56 in Calm   8.0 mph 86 % 0.00 in 0 W/m2
17:20 33.3 °F 29.8 °F 30.57 in Calm   8.0 mph 87 % 0.00 in 0 W/m2
17:25 33.2 °F 29.8 °F 30.56 in Calm   8.0 mph 87 % 0.00 in 0 W/m2
17:35 33.2 °F 30.0 °F 30.56 in Calm   8.0 mph 88 % 0.00 in 0 W/m2
17:40 33.3 °F 30.1 °F 30.56 in Calm   8.0 mph 88 % 0.00 in 0 W/m2
17:45 33.2 °F 30.0 °F 30.56 in Calm   8.0 mph 88 % 0.00 in 0 W/m2
17:50 33.1 °F 30.2 °F 30.57 in Calm   8.0 mph 89 % 0.00 in 0 W/m2
17:55 32.8 °F 29.6 °F 30.57 in Calm   8.0 mph 88 % 0.00 in 0 W/m2
18:00 32.6 °F 29.4 °F 30.57 in Calm   8.0 mph 88 % 0.00 in 0 W/m2
18:05 32.4 °F 29.2 °F 30.58 in Calm   8.0 mph 88 % 0.00 in 0 W/m2
18:15 31.8 °F 28.7 °F 30.57 in Calm   8.0 mph 88 % 0.00 in 0 W/m2
18:20 31.6 °F 28.7 °F 30.57 in Calm   8.0 mph 89 % 0.00 in 0 W/m2
18:25 31.4 °F 28.5 °F 30.57 in Calm   8.0 mph 89 % 0.00 in 0 W/m2
18:30 31.2 °F 28.3 °F 30.58 in Calm   8.0 mph 89 % 0.00 in 0 W/m2
18:35 31.1 °F 28.2 °F 30.57 in Calm   8.0 mph 89 % 0.00 in 0 W/m2
18:40 31.0 °F 28.4 °F 30.57 in Calm   8.0 mph 90 % 0.00 in 0 W/m2
18:50 30.9 °F 28.6 °F 30.57 in Calm   8.0 mph 91 % 0.00 in 0 W/m2
18:55 30.9 °F 28.6 °F 30.57 in Calm   8.0 mph 91 % 0.00 in 0 W/m2
19:00 30.9 °F 28.6 °F 30.57 in Calm   8.0 mph 91 % 0.00 in 0 W/m2
19:05 30.9 °F 28.6 °F 30.57 in Calm   8.0 mph 91 % 0.00 in 0 W/m2
19:10 31.1 °F 29.0 °F 30.57 in Calm   8.0 mph 92 % 0.00 in 0 W/m2
19:15 31.1 °F 29.0 °F 30.57 in Calm   8.0 mph 92 % 0.00 in 0 W/m2
19:25 31.1 °F 29.0 °F 30.57 in Calm   8.0 mph 92 % 0.00 in 0 W/m2
19:30 31.1 °F 29.0 °F 30.57 in Calm   8.0 mph 92 % 0.00 in 0 W/m2
19:35 31.1 °F 29.0 °F 30.57 in Calm   8.0 mph 92 % 0.00 in 0 W/m2
19:40 31.0 °F 28.9 °F 30.57 in Calm   8.0 mph 92 % 0.00 in 0 W/m2
19:45 30.8 °F 28.8 °F 30.57 in Calm   8.0 mph 92 % 0.00 in 0 W/m2
19:50 30.6 °F 28.3 °F 30.57 in Calm   8.0 mph 91 % 0.00 in 0 W/m2
20:00 30.6 °F 28.6 °F 30.57 in Calm   8.0 mph 92 % 0.00 in 0 W/m2
20:05 30.6 °F 28.6 °F 30.57 in Calm   8.0 mph 92 % 0.00 in 0 W/m2
20:10 30.4 °F 28.4 °F 30.57 in Calm   8.0 mph 92 % 0.00 in 0 W/m2
20:15 30.5 °F 28.5 °F 30.58 in Calm   8.0 mph 92 % 0.00 in 0 W/m2
20:20 30.7 °F 28.9 °F 30.58 in Calm   8.0 mph 93 % 0.00 in 0 W/m2
20:25 30.8 °F 29.0 °F 30.58 in Calm   8.0 mph 93 % 0.00 in 0 W/m2
20:30 30.7 °F 28.9 °F 30.58 in Calm   8.0 mph 93 % 0.00 in 0 W/m2
20:35 30.7 °F 28.9 °F 30.58 in Calm   8.0 mph 93 % 0.00 in 0 W/m2
20:45 30.6 °F 28.8 °F 30.57 in Calm   8.0 mph 93 % 0.00 in 0 W/m2
20:50 30.6 °F 28.8 °F 30.57 in Calm   8.0 mph 93 % 0.00 in 0 W/m2
20:55 30.6 °F 28.8 °F 30.57 in Calm   8.0 mph 93 % 0.00 in 0 W/m2
21:00 30.6 °F 28.8 °F 30.57 in Calm   8.0 mph 93 % 0.00 in 0 W/m2
21:05 30.6 °F 28.8 °F 30.57 in Calm   8.0 mph 93 % 0.00 in 0 W/m2
21:10 30.6 °F 28.8 °F 30.57 in Calm   8.0 mph 93 % 0.00 in 0 W/m2
21:20 30.4 °F 28.6 °F 30.57 in Calm   8.0 mph 93 % 0.00 in 0 W/m2
21:25 30.2 °F 28.4 °F 30.57 in Calm   8.0 mph 93 % 0.00 in 0 W/m2
21:30 30.3 °F 28.5 °F 30.57 in Calm   8.0 mph 93 % 0.00 in 0 W/m2
21:35 30.4 °F 28.9 °F 30.57 in Calm   8.0 mph 94 % 0.00 in 0 W/m2
21:40 30.3 °F 28.5 °F 30.57 in Calm   8.0 mph 93 % 0.00 in 0 W/m2
21:50 29.9 °F 28.1 °F 30.57 in Calm   8.0 mph 93 % 0.00 in 0 W/m2
21:55 29.8 °F 28.0 °F 30.57 in NW 1.0 mph 8.0 mph 93 % 0.00 in 0 W/m2
22:05 30.8 °F 29.5 °F 30.57 in WNW 2.0 mph 8.0 mph 95 % 0.00 in 0 W/m2
22:10 31.2 °F 29.7 °F 30.57 in WNW 2.0 mph 8.0 mph 94 % 0.00 in 0 W/m2
22:15 31.0 °F 29.2 °F 30.57 in WNW 3.0 mph 8.0 mph 93 % 0.00 in 0 W/m2
22:20 30.8 °F 29.0 °F 30.57 in WNW 2.0 mph 2.0 mph 93 % 0.00 in 0 W/m2
22:25 30.8 °F 29.0 °F 30.57 in WNW 1.0 mph 8.0 mph 93 % 0.00 in 0 W/m2
22:30 30.9 °F 29.1 °F 30.57 in Calm   8.0 mph 93 % 0.00 in 0 W/m2
22:35 31.0 °F 29.2 °F 30.57 in Calm   8.0 mph 93 % 0.00 in 0 W/m2
22:45 31.3 °F 29.5 °F 30.57 in Calm   8.0 mph 93 % 0.00 in 0 W/m2
22:50 31.8 °F 30.3 °F 30.57 in SW 1.0 mph 1.0 mph 94 % 0.00 in 0 W/m2
22:55 32.1 °F 30.6 °F 30.57 in SW 2.0 mph 2.0 mph 94 % 0.00 in 0 W/m2
23:00 32.5 °F 31.0 °F 30.57 in SW 1.0 mph 8.0 mph 94 % 0.00 in 0 W/m2
23:05 32.7 °F 30.9 °F 30.57 in SSW 2.0 mph 8.0 mph 93 % 0.00 in 0 W/m2
23:15 32.9 °F 30.8 °F 30.57 in SW 1.0 mph 8.0 mph 92 % 0.00 in 0 W/m2
23:20 33.0 °F 30.7 °F 30.56 in SW 1.0 mph 8.0 mph 91 % 0.00 in 0 W/m2
23:25 33.1 °F 30.8 °F 30.56 in WSW 3.0 mph 8.0 mph 91 % 0.00 in 0 W/m2
23:30 33.4 °F 31.1 °F 30.56 in WSW 5.0 mph 5.0 mph 91 % 0.00 in 0 W/m2
23:35 33.6 °F 31.0 °F 30.57 in WSW 5.0 mph 8.0 mph 90 % 0.00 in 0 W/m2
23:40 33.7 °F 31.1 °F 30.56 in WSW 3.0 mph 3.0 mph 90 % 0.00 in 0 W/m2
23:50 33.9 °F 31.0 °F 30.56 in South 2.0 mph 2.0 mph 89 % 0.00 in 0 W/m2
23:55 33.9 °F 30.7 °F 30.56 in WSW 2.0 mph 8.0 mph 88 % 0.00 in 0 W/m2
Delerius-Weather
Compliments of Weather Underground - 2 mb

Data updates at regular intervals.